createdAt,value
2022-10-19T00:01:05.599Z,1.70
2022-10-19T00:03:33.905Z,2.10
2022-10-19T00:06:02.459Z,2.00
2022-10-19T00:08:30.485Z,1.50
2022-10-19T00:11:02.360Z,2.20
2022-10-19T00:13:30.394Z,2.08
2022-10-19T00:15:58.381Z,1.77
2022-10-19T00:18:26.408Z,2.00
2022-10-19T00:20:54.416Z,1.80
2022-10-19T00:23:22.948Z,1.83
2022-10-19T00:25:57.669Z,2.50
2022-10-19T00:28:27.172Z,1.73
2022-10-19T00:30:55.227Z,2.10
2022-10-19T00:33:23.341Z,1.80
2022-10-19T00:35:52.616Z,1.90
2022-10-19T00:38:21.976Z,2.05
2022-10-19T00:40:50.120Z,1.75
2022-10-19T00:43:19.976Z,1.98
2022-10-19T00:45:49.715Z,2.17
2022-10-19T00:48:22.828Z,1.92
2022-10-19T00:50:52.096Z,2.05
2022-10-19T00:53:20.282Z,1.88
2022-10-19T00:55:48.481Z,1.70
2022-10-19T00:58:16.604Z,1.80
2022-10-19T01:00:44.902Z,1.90
2022-10-19T01:03:15.423Z,1.90
2022-10-19T01:05:44.232Z,1.73
2022-10-19T01:08:13.405Z,1.65
2022-10-19T01:10:53.154Z,1.90
2022-10-19T01:13:41.165Z,1.83
2022-10-19T01:16:15.143Z,2.28
2022-10-19T01:18:51.809Z,1.75
2022-10-19T01:21:26.192Z,2.30
2022-10-19T01:24:12.464Z,1.92
2022-10-19T01:27:18.096Z,1.83
2022-10-19T01:30:07.318Z,2.55
2022-10-19T01:32:45.186Z,2.00
2022-10-19T01:35:22.823Z,2.10
2022-10-19T01:37:56.621Z,2.22
2022-10-19T01:40:31.465Z,2.00
2022-10-19T01:43:03.585Z,1.80
2022-10-19T01:45:39.743Z,1.70
2022-10-19T01:48:13.343Z,2.13
2022-10-19T01:50:45.968Z,2.30
2022-10-19T01:53:16.995Z,2.00
2022-10-19T01:55:48.883Z,2.20
2022-10-19T01:58:21.314Z,1.90
2022-10-19T02:00:54.094Z,2.10
2022-10-19T02:03:23.225Z,1.90
2022-10-19T02:05:53.754Z,1.52
2022-10-19T02:08:26.082Z,1.70
2022-10-19T02:10:54.793Z,1.90
2022-10-19T02:13:23.755Z,1.90
2022-10-19T02:15:56.267Z,2.03
2022-10-19T02:18:29.608Z,1.95
2022-10-19T02:20:58.196Z,1.77
2022-10-19T02:23:28.089Z,1.98
2022-10-19T02:25:57.818Z,1.77
2022-10-19T02:28:30.132Z,2.00
2022-10-19T02:31:00.583Z,1.48
2022-10-19T02:33:29.865Z,1.70
2022-10-19T02:35:58.569Z,1.85
2022-10-19T02:38:27.009Z,1.50
2022-10-19T02:41:02.093Z,1.60
2022-10-19T02:43:31.293Z,1.50
2022-10-19T02:46:05.330Z,1.58
2022-10-19T02:48:35.706Z,1.92
2022-10-19T02:51:03.795Z,1.65
2022-10-19T02:53:31.825Z,1.85
2022-10-19T02:55:59.806Z,1.52
2022-10-19T02:58:27.797Z,1.50
2022-10-19T03:00:56.287Z,1.85
2022-10-19T03:03:25.789Z,1.98
2022-10-19T03:05:53.794Z,1.55
2022-10-19T03:08:21.811Z,1.90
2022-10-19T03:10:49.802Z,2.22
2022-10-19T03:13:17.823Z,2.13
2022-10-19T03:15:45.841Z,2.33
2022-10-19T03:18:13.866Z,1.80
2022-10-19T03:20:43.326Z,1.95
2022-10-19T03:23:11.329Z,2.05
2022-10-19T03:25:39.363Z,2.05
2022-10-19T03:28:07.351Z,1.92
2022-10-19T03:30:35.458Z,1.83
2022-10-19T03:33:03.410Z,1.70
2022-10-19T03:35:31.405Z,2.08
2022-10-19T03:38:00.849Z,2.30
2022-10-19T03:40:28.846Z,1.45
2022-10-19T03:42:56.909Z,1.92
2022-10-19T03:45:24.936Z,1.55
2022-10-19T03:47:53.310Z,1.90
2022-10-19T03:50:21.616Z,2.15
2022-10-19T03:52:49.887Z,1.50
2022-10-19T03:55:19.409Z,1.90
2022-10-19T03:57:47.401Z,2.25
2022-10-19T04:00:16.230Z,2.00
2022-10-19T04:02:44.222Z,1.90
2022-10-19T04:05:12.228Z,2.10
2022-10-19T04:07:40.220Z,2.05
2022-10-19T04:10:09.162Z,2.20
2022-10-19T04:12:38.596Z,2.05
2022-10-19T04:15:07.210Z,2.00
2022-10-19T04:17:35.536Z,1.92
2022-10-19T04:20:03.919Z,2.00
2022-10-19T04:22:31.920Z,2.20
2022-10-19T04:24:59.965Z,1.70
2022-10-19T04:27:27.923Z,1.80
2022-10-19T04:29:57.290Z,1.92
2022-10-19T04:32:25.279Z,2.15
2022-10-19T04:34:53.335Z,2.22
2022-10-19T04:37:21.390Z,2.10
2022-10-19T04:39:49.391Z,1.75
2022-10-19T04:42:17.435Z,2.28
2022-10-19T04:44:45.454Z,2.15
2022-10-19T04:47:14.855Z,2.45
2022-10-19T04:49:42.849Z,2.33
2022-10-19T04:52:10.852Z,1.75
2022-10-19T04:54:38.885Z,2.15
2022-10-19T04:57:06.887Z,2.20
2022-10-19T04:59:35.081Z,2.08
2022-10-19T05:02:03.090Z,1.83
2022-10-19T05:04:32.475Z,2.10
2022-10-19T05:07:00.940Z,2.05
2022-10-19T05:09:28.962Z,1.70
2022-10-19T05:11:57.011Z,1.88
2022-10-19T05:14:25.426Z,1.90
2022-10-19T05:16:53.446Z,2.00
2022-10-19T05:19:21.525Z,2.33
2022-10-19T05:21:50.931Z,3.97
2022-10-19T05:24:18.902Z,4.43
2022-10-19T05:26:46.970Z,5.00
2022-10-19T05:29:15.258Z,5.00
2022-10-19T05:31:43.311Z,5.13
2022-10-19T05:34:11.494Z,5.35
2022-10-19T05:36:40.928Z,7.05
2022-10-19T05:39:13.419Z,7.65
2022-10-19T05:41:41.885Z,6.30
2022-10-19T05:44:16.051Z,7.15
2022-10-19T05:46:44.730Z,7.72
2022-10-19T05:49:13.496Z,6.95
2022-10-19T05:51:41.909Z,6.82
2022-10-19T05:54:11.664Z,6.05
2022-10-19T05:56:40.966Z,4.97
2022-10-19T05:59:10.267Z,4.32
2022-10-19T06:01:38.508Z,4.05
2022-10-19T06:04:07.423Z,3.90
2022-10-19T06:06:35.554Z,4.20
2022-10-19T06:09:04.404Z,4.65
2022-10-19T06:11:35.800Z,4.97
2022-10-19T06:14:05.753Z,4.38
2022-10-19T06:16:34.721Z,4.30
2022-10-19T06:19:02.870Z,4.38
2022-10-19T06:21:32.251Z,4.45
2022-10-19T06:24:02.793Z,3.88
2022-10-19T06:26:33.787Z,3.90
2022-10-19T06:29:02.743Z,3.58
2022-10-19T06:31:31.778Z,3.33
2022-10-19T06:34:00.102Z,2.67
2022-10-19T06:36:30.000Z,2.60
2022-10-19T06:38:59.791Z,2.70
2022-10-19T06:41:27.906Z,1.80
2022-10-19T06:43:57.591Z,3.25
2022-10-19T06:46:27.181Z,2.38
2022-10-19T06:48:57.152Z,2.85
2022-10-19T06:51:26.486Z,2.72
2022-10-19T06:53:57.263Z,2.38
2022-10-19T06:56:25.866Z,2.03
2022-10-19T06:58:54.540Z,2.92
2022-10-19T07:01:24.235Z,2.35
2022-10-19T07:03:52.414Z,2.58
2022-10-19T07:06:20.453Z,2.35
2022-10-19T07:08:48.653Z,2.10
2022-10-19T07:11:18.704Z,2.38
2022-10-19T07:13:46.767Z,2.58
2022-10-19T07:16:20.561Z,2.38
2022-10-19T07:18:52.383Z,2.22
2022-10-19T07:21:22.479Z,2.20
2022-10-19T07:23:50.729Z,2.20
2022-10-19T07:26:21.464Z,2.03
2022-10-19T07:28:50.442Z,2.30
2022-10-19T07:31:21.678Z,1.90
2022-10-19T07:33:53.773Z,1.77
2022-10-19T07:36:22.221Z,2.08
2022-10-19T07:38:50.245Z,2.58
2022-10-19T07:41:20.061Z,2.00
2022-10-19T07:43:48.888Z,2.05
2022-10-19T07:46:19.142Z,2.05
2022-10-19T07:48:47.959Z,2.08
2022-10-19T07:51:19.427Z,2.10
2022-10-19T07:53:48.161Z,2.47
2022-10-19T07:56:18.050Z,1.75
2022-10-19T07:58:46.315Z,2.10
2022-10-19T08:01:16.082Z,2.00
2022-10-19T08:06:34.178Z,2.63
2022-10-19T08:09:02.200Z,2.40
2022-10-19T08:11:32.574Z,2.35
2022-10-19T08:14:03.118Z,2.03
2022-10-19T08:16:33.896Z,2.60
2022-10-19T08:19:04.046Z,2.70
2022-10-19T08:21:32.593Z,2.67
2022-10-19T08:24:02.240Z,1.88
2022-10-19T08:26:30.978Z,2.97
2022-10-19T08:29:02.114Z,2.50
2022-10-19T08:31:30.541Z,2.25
2022-10-19T08:33:58.812Z,2.35
2022-10-19T08:36:28.472Z,2.08
2022-10-19T08:38:56.526Z,2.53
2022-10-19T08:41:44.722Z,2.10
2022-10-19T08:44:32.074Z,1.90
2022-10-19T08:47:12.335Z,2.42
2022-10-19T08:49:41.283Z,2.10
2022-10-19T08:52:15.619Z,2.17
2022-10-19T08:54:50.341Z,2.38
2022-10-19T08:57:31.271Z,2.92
2022-10-19T09:00:05.606Z,2.03
2022-10-19T09:02:46.614Z,2.13
2022-10-19T09:05:19.878Z,2.17
2022-10-19T09:07:52.574Z,1.55
2022-10-19T09:10:26.519Z,1.70
2022-10-19T09:12:59.970Z,1.77
2022-10-19T09:15:33.973Z,2.10
2022-10-19T09:18:03.156Z,1.83
2022-10-19T09:20:36.499Z,2.92
2022-10-19T09:23:13.613Z,1.83
2022-10-19T09:25:42.387Z,1.83
2022-10-19T09:28:31.564Z,1.70
2022-10-19T09:31:08.020Z,1.70
2022-10-19T09:33:38.255Z,1.50
2022-10-19T09:36:09.172Z,1.83
2022-10-19T09:38:38.572Z,1.80
2022-10-19T09:41:18.847Z,1.67
2022-10-19T09:43:55.683Z,2.05
2022-10-19T09:46:52.112Z,1.70
2022-10-19T09:49:39.197Z,2.05
2022-10-19T09:52:23.266Z,1.77
2022-10-19T09:54:59.912Z,2.08
2022-10-19T09:57:27.903Z,1.90
2022-10-19T09:59:57.443Z,1.95
2022-10-19T10:02:32.161Z,1.90
2022-10-19T10:05:07.481Z,2.00
2022-10-19T10:07:38.096Z,1.83
2022-10-19T10:10:12.010Z,2.10
2022-10-19T10:12:41.941Z,2.17
2022-10-19T10:15:18.953Z,1.85
2022-10-19T10:17:49.659Z,1.90
2022-10-19T10:20:27.907Z,2.10
2022-10-19T10:22:59.440Z,1.88
2022-10-19T10:25:30.388Z,1.52
2022-10-19T10:28:01.417Z,1.33
2022-10-19T10:30:36.084Z,1.77
2022-10-19T10:33:15.949Z,1.88
2022-10-19T10:35:57.923Z,1.70
2022-10-19T10:38:28.986Z,1.50
2022-10-19T10:41:01.078Z,1.70
2022-10-19T10:43:33.508Z,2.08
2022-10-19T10:46:06.627Z,1.95
2022-10-19T10:48:39.880Z,1.77
2022-10-19T10:51:21.702Z,1.40
2022-10-19T10:53:49.880Z,1.38
2022-10-19T10:56:24.958Z,1.33
2022-10-19T10:59:00.245Z,1.80
2022-10-19T11:01:33.958Z,1.80
2022-10-19T11:04:06.032Z,1.58
2022-10-19T11:06:39.614Z,1.63
2022-10-19T11:09:17.739Z,1.67
2022-10-19T11:11:47.598Z,1.65
2022-10-19T11:14:31.621Z,1.63
2022-10-19T11:17:06.054Z,1.65
2022-10-19T11:19:36.841Z,1.30
2022-10-19T11:22:17.723Z,1.35
2022-10-19T11:24:58.937Z,1.80
2022-10-19T11:27:38.621Z,1.90
2022-10-19T11:30:13.857Z,1.70
2022-10-19T11:32:57.274Z,1.55
2022-10-19T11:35:47.206Z,1.70
2022-10-19T11:38:30.254Z,1.40
2022-10-19T11:41:18.132Z,2.05
2022-10-19T11:44:00.083Z,1.90
2022-10-19T11:46:40.268Z,1.90
2022-10-19T11:49:21.479Z,1.98
2022-10-19T11:51:57.597Z,2.08
2022-10-19T11:54:40.134Z,1.63
2022-10-19T11:57:14.446Z,1.95
2022-10-19T11:59:53.190Z,1.65
2022-10-19T12:02:47.608Z,1.92
2022-10-19T12:05:22.072Z,2.17
2022-10-19T12:08:02.335Z,1.45
2022-10-19T12:10:35.031Z,1.40
2022-10-19T12:13:06.073Z,1.70
2022-10-19T12:15:39.286Z,1.77
2022-10-19T12:18:15.489Z,1.50
2022-10-19T12:20:50.621Z,1.60
2022-10-19T12:23:25.922Z,2.35
2022-10-19T12:25:56.262Z,1.63
2022-10-19T12:28:30.001Z,1.70
2022-10-19T12:30:59.001Z,1.77
2022-10-19T12:33:34.844Z,1.80
2022-10-19T12:36:14.274Z,1.98
2022-10-19T12:38:59.692Z,2.25
2022-10-19T12:41:35.778Z,1.85
2022-10-19T12:44:16.487Z,1.70
2022-10-19T12:46:49.911Z,1.90
2022-10-19T12:49:44.230Z,1.85
2022-10-19T12:52:15.046Z,2.03
2022-10-19T12:54:44.657Z,1.70
2022-10-19T12:57:28.145Z,1.80
2022-10-19T13:00:05.994Z,2.03
2022-10-19T13:02:36.462Z,1.98
2022-10-19T13:05:06.343Z,1.50
2022-10-19T13:07:37.283Z,2.10
2022-10-19T13:10:09.682Z,2.20
2022-10-19T13:12:45.159Z,1.65
2022-10-19T13:15:59.157Z,2.03
2022-10-19T13:19:00.690Z,1.95
2022-10-19T13:21:50.018Z,1.75
2022-10-19T13:24:28.910Z,2.30
2022-10-19T13:27:29.171Z,2.17
2022-10-19T13:29:57.307Z,2.35
2022-10-19T13:32:43.016Z,2.47
2022-10-19T13:35:31.042Z,2.95
2022-10-19T13:38:20.996Z,2.63
2022-10-19T13:41:02.527Z,2.40
2022-10-19T13:43:33.244Z,2.83
2022-10-19T13:46:11.634Z,3.47
2022-10-19T13:48:56.940Z,2.90
2022-10-19T13:51:32.629Z,2.78
2022-10-19T13:54:11.533Z,2.65
2022-10-19T13:56:55.033Z,3.08
2022-10-19T14:00:16.844Z,2.80
2022-10-19T14:03:01.869Z,2.60
2022-10-19T14:05:53.735Z,2.40
2022-10-19T14:08:41.715Z,2.78
2022-10-19T14:11:15.458Z,2.78
2022-10-19T14:13:45.222Z,3.55
2022-10-19T14:16:21.029Z,2.95
2022-10-19T14:18:55.933Z,3.78
2022-10-19T14:21:34.506Z,3.50
2022-10-19T14:24:02.596Z,3.60
2022-10-19T14:26:31.613Z,3.40
2022-10-19T14:29:01.494Z,3.75
2022-10-19T14:31:36.170Z,3.30
2022-10-19T14:34:06.431Z,3.50
2022-10-19T14:36:37.461Z,3.80
2022-10-19T14:39:07.602Z,4.03
2022-10-19T14:41:37.608Z,3.90
2022-10-19T14:44:35.644Z,3.95
2022-10-19T14:47:07.813Z,4.85
2022-10-19T14:49:35.949Z,4.55
2022-10-19T14:52:05.228Z,5.00
2022-10-19T14:54:37.257Z,5.10
2022-10-19T14:57:08.847Z,5.28
2022-10-19T14:59:44.759Z,4.75
2022-10-19T15:02:18.866Z,5.10
2022-10-19T15:04:47.567Z,4.95
2022-10-19T15:07:19.989Z,4.55
2022-10-19T15:09:54.789Z,4.35
2022-10-19T15:12:28.215Z,4.35
2022-10-19T15:14:59.230Z,4.65
2022-10-19T15:17:29.205Z,4.38
2022-10-19T15:19:59.979Z,3.85
2022-10-19T15:22:41.352Z,4.05
2022-10-19T15:25:26.793Z,4.55
2022-10-19T15:27:54.922Z,11.75
2022-10-19T15:30:33.618Z,4.20
2022-10-19T15:33:15.784Z,4.10
2022-10-19T15:35:45.378Z,3.67
2022-10-19T15:38:20.320Z,3.85
2022-10-19T15:40:49.244Z,3.60
2022-10-19T15:43:44.009Z,3.65
2022-10-19T15:46:33.248Z,3.42
2022-10-19T15:49:05.519Z,3.97
2022-10-19T15:51:42.147Z,3.33
2022-10-19T15:54:10.189Z,3.28
2022-10-19T15:56:39.819Z,3.33
2022-10-19T15:59:13.435Z,3.22
2022-10-19T16:01:43.861Z,3.65
2022-10-19T16:04:12.497Z,3.95
2022-10-19T16:06:44.107Z,3.55
2022-10-19T16:09:18.583Z,3.45
2022-10-19T16:11:46.652Z,3.70
2022-10-19T16:14:14.729Z,3.60
2022-10-19T16:16:44.176Z,3.97
2022-10-19T16:19:12.396Z,4.70
2022-10-19T16:21:40.398Z,5.47
2022-10-19T16:24:09.746Z,5.70
2022-10-19T16:26:37.869Z,8.35
2022-10-19T16:29:05.946Z,7.88
2022-10-19T16:31:33.929Z,6.65
2022-10-19T16:34:03.358Z,6.55
2022-10-19T16:36:31.443Z,5.53
2022-10-19T16:39:01.291Z,5.05
2022-10-19T16:41:29.407Z,5.75
2022-10-19T16:43:58.181Z,5.38
2022-10-19T16:46:26.910Z,5.03
2022-10-19T16:48:54.936Z,5.30
2022-10-19T16:51:37.202Z,7.05
2022-10-19T16:54:07.133Z,9.30
2022-10-19T16:56:36.334Z,9.77
2022-10-19T16:59:06.462Z,11.35
2022-10-19T17:01:36.172Z,11.57
2022-10-19T17:04:04.358Z,12.68
2022-10-19T17:06:33.931Z,13.18
2022-10-19T17:11:51.905Z,12.55
2022-10-19T17:14:19.945Z,12.70
2022-10-19T17:16:47.958Z,12.57
2022-10-19T17:19:15.946Z,12.75
2022-10-19T17:21:43.989Z,12.27
2022-10-19T17:24:21.147Z,12.23
2022-10-19T17:26:51.617Z,11.75
2022-10-19T17:29:20.475Z,9.20
2022-10-19T17:31:48.649Z,8.93
2022-10-19T17:34:17.190Z,7.47
2022-10-19T17:36:46.856Z,7.22
2022-10-19T17:39:19.075Z,6.95
2022-10-19T17:41:48.474Z,7.00
2022-10-19T17:44:17.033Z,6.85
2022-10-19T17:46:45.446Z,6.72
2022-10-19T17:49:13.909Z,6.50
2022-10-19T17:51:42.089Z,6.70
2022-10-19T17:54:12.805Z,6.80
2022-10-19T17:56:45.022Z,6.80
2022-10-19T17:59:14.221Z,7.88
2022-10-19T18:01:42.393Z,7.18
2022-10-19T18:04:10.497Z,7.22
2022-10-19T18:06:39.394Z,7.38
2022-10-19T18:09:09.308Z,8.25
2022-10-19T18:11:40.401Z,7.90
2022-10-19T18:14:12.198Z,7.38
2022-10-19T18:16:42.218Z,7.72
2022-10-19T18:19:10.316Z,7.00
2022-10-19T18:21:41.105Z,6.53
2022-10-19T18:24:15.286Z,6.15
2022-10-19T18:26:44.177Z,6.05
2022-10-19T18:29:16.825Z,5.90
2022-10-19T18:31:49.086Z,4.95
2022-10-19T18:34:17.141Z,5.38
2022-10-19T18:36:45.503Z,8.40
2022-10-19T18:39:14.830Z,7.43
2022-10-19T18:41:42.869Z,6.82
2022-10-19T18:44:14.747Z,7.65
2022-10-19T18:46:42.967Z,8.35
2022-10-19T18:49:12.842Z,6.30
2022-10-19T18:51:41.003Z,5.88
2022-10-19T18:54:09.462Z,4.72
2022-10-19T18:56:37.575Z,4.50
2022-10-19T18:59:05.938Z,3.85
2022-10-19T19:01:35.413Z,3.95
2022-10-19T19:04:08.493Z,3.72
2022-10-19T19:06:37.246Z,4.68
2022-10-19T19:09:07.878Z,4.50
2022-10-19T19:11:38.290Z,4.57
2022-10-19T19:14:08.241Z,4.60
2022-10-19T19:16:39.203Z,4.35
2022-10-19T19:19:08.183Z,4.53
2022-10-19T19:21:36.997Z,3.72
2022-10-19T19:24:07.311Z,4.15
2022-10-19T19:26:40.182Z,4.22
2022-10-19T19:29:08.302Z,4.43
2022-10-19T19:31:39.194Z,4.93
2022-10-19T19:34:09.367Z,4.65
2022-10-19T19:36:38.099Z,5.07
2022-10-19T19:39:06.581Z,5.32
2022-10-19T19:41:34.590Z,5.68
2022-10-19T19:44:02.582Z,4.80
2022-10-19T19:46:31.150Z,4.60
2022-10-19T19:49:03.340Z,4.55
2022-10-19T19:51:33.206Z,4.53
2022-10-19T19:54:01.189Z,5.13
2022-10-19T19:56:29.943Z,4.53
2022-10-19T19:58:59.525Z,5.57
2022-10-19T20:01:27.962Z,5.38
2022-10-19T20:03:58.458Z,5.45
2022-10-19T20:06:28.021Z,5.57
2022-10-19T20:08:57.492Z,5.28
2022-10-19T20:11:27.477Z,5.38
2022-10-19T20:13:56.099Z,5.80
2022-10-19T20:16:29.039Z,4.97
2022-10-19T20:19:01.834Z,5.45
2022-10-19T20:21:31.878Z,5.18
2022-10-19T20:23:59.969Z,5.72
2022-10-19T20:26:28.678Z,5.70
2022-10-19T20:28:57.116Z,5.95
2022-10-19T20:31:25.823Z,5.28
2022-10-19T20:33:54.111Z,5.63
2022-10-19T20:36:24.464Z,5.35
2022-10-19T20:38:55.918Z,5.55
2022-10-19T20:41:25.385Z,5.20
2022-10-19T20:43:54.694Z,5.25
2022-10-19T20:46:25.214Z,5.90
2022-10-19T20:48:54.880Z,5.78
2022-10-19T20:51:30.674Z,5.45
2022-10-19T20:54:03.406Z,6.15
2022-10-19T20:56:33.958Z,5.78
2022-10-19T21:01:38.868Z,5.32
2022-10-19T21:04:09.298Z,5.93
2022-10-19T21:06:40.453Z,5.63
2022-10-19T21:09:11.141Z,5.60
2022-10-19T21:11:41.517Z,5.60
2022-10-19T21:14:14.598Z,5.93
2022-10-19T21:16:43.369Z,5.40
2022-10-19T21:19:13.498Z,5.75
2022-10-19T21:21:44.780Z,5.30
2022-10-19T21:24:15.878Z,5.30
2022-10-19T21:26:44.007Z,5.75
2022-10-19T21:29:13.041Z,6.43
2022-10-19T21:31:46.430Z,5.35
2022-10-19T21:34:18.347Z,5.18
2022-10-19T21:36:46.723Z,5.57
2022-10-19T21:39:16.078Z,5.47
2022-10-19T21:41:44.503Z,6.03
2022-10-19T21:44:12.572Z,5.13
2022-10-19T21:46:40.569Z,6.10
2022-10-19T21:49:08.545Z,5.72
2022-10-19T21:51:38.761Z,5.82
2022-10-19T21:56:46.434Z,6.60
2022-10-19T21:59:15.337Z,6.35
2022-10-19T22:01:43.594Z,5.70
2022-10-19T22:04:14.399Z,5.75
2022-10-19T22:06:42.796Z,6.60
2022-10-19T22:09:13.878Z,6.15
2022-10-19T22:11:42.427Z,6.28
2022-10-19T22:14:14.124Z,6.10
2022-10-19T22:16:42.991Z,6.25
2022-10-19T22:19:11.368Z,5.88
2022-10-19T22:21:39.886Z,5.63
2022-10-19T22:24:09.810Z,6.32
2022-10-19T22:26:39.992Z,6.30
2022-10-19T22:29:08.591Z,6.30
2022-10-19T22:31:38.449Z,5.78
2022-10-19T22:34:08.963Z,6.47
2022-10-19T22:36:37.205Z,5.80
2022-10-19T22:39:05.934Z,6.25
2022-10-19T22:41:34.081Z,5.28
2022-10-19T22:44:02.262Z,5.85
2022-10-19T22:46:30.338Z,6.10
2022-10-19T22:49:00.586Z,6.28
2022-10-19T22:51:28.871Z,6.15
2022-10-19T22:53:56.971Z,5.97
2022-10-19T22:56:24.940Z,5.72
2022-10-19T22:58:53.077Z,6.05
2022-10-19T23:01:21.128Z,5.95
2022-10-19T23:03:49.149Z,5.80
2022-10-19T23:06:18.666Z,5.70
2022-10-19T23:08:47.397Z,6.20
2022-10-19T23:11:16.083Z,5.47
2022-10-19T23:13:44.350Z,5.68
2022-10-19T23:16:12.753Z,6.13
2022-10-19T23:18:42.258Z,5.70
2022-10-19T23:21:13.543Z,5.80
2022-10-19T23:23:43.186Z,5.32
2022-10-19T23:26:14.009Z,5.60
2022-10-19T23:28:44.285Z,5.43
2022-10-19T23:31:13.920Z,6.10
2022-10-19T23:33:42.878Z,5.43
2022-10-19T23:36:14.339Z,5.45
2022-10-19T23:38:44.616Z,5.30
2022-10-19T23:41:12.811Z,5.47
2022-10-19T23:43:41.160Z,5.32
2022-10-19T23:46:09.549Z,4.97
2022-10-19T23:48:37.838Z,5.28
2022-10-19T23:51:08.305Z,5.10
2022-10-19T23:53:40.714Z,4.72
2022-10-19T23:56:13.170Z,5.03
2022-10-19T23:58:41.340Z,5.47
